Etusivu
METAR-TAF:

METAR-TAF

Lentoasemat :

Kuwaitin kansainvälinen lentoasema

Kuwait, Kuwait

Leveyspiiri: 29-13N, Pituuspiiri: 047-59E, korkeus merenpinnasta: 55 m

Tämänhetkinen sää

Tämä raportti tehtiin 1 tunti ja 2 minuuttia sitten, kello 20.00 UTC
Tuuli 7 kn kaakosta
Lämpötila 33°C
Kosteus 84%
Ilmanpaine 1007 hPa
Näkyvyys: 7000 m
selkeää

METAR: OKBK 182000Z 13007KT 7000 SKC 33/30 Q1007 NOSIG

Aika: 00:02 (21:02 UTC)

Sääennuste

Tämä raportti tehtiin 3 tuntia ja 47 minuuttia sitten, kello 17.15 UTC
Ennuste voimassa 18. päivästä klo 18 UTC - 19. päivään klo 24 UTC
Tuuli 10 kn etelästä/kaakosta
Näkyvyys: 6000 m
selkeää
Ajoittain
18. päivästä klo 22 UTC - 19. päivään klo 05 UTC
Tuuli 3 kn eri suunnista
Näkyvyys: 3000 m
utua

TAF: OKBK 181715Z 1818/1924 15010KT 6000 SKC TEMPO 1822/1905 VRB03KT 3000 BR

Säähavainnot ja -ennusteet yli 4000 lentoasemalta (METAR- ja TAF-raportit).

Käytössä olevat sääasemat on merkitty karttaan keltaisilla ja punaisilla pisteillä.

Aseta hiiri pisteen päälle nähdäksesi sääaseman nimen.

Klikkaa sitten nähdäksesi säähavainnot ja -ennusteet.

Kartan vaihtaminen: klikkaa mustalla rastilla varustettuja vihreitä pisteitä, niin voit zoomata sisään; viivalla varustettua vihreää pistettä, niin voit zoomata ulos tai vihreitä nuolia, niin pääset viereisille kartoille.


METAR-TAF: